sensor_id;sensor_type;location;lat;lon;timestamp;pressure;altitude;pressure_sealevel;temperature;humidity
40730;BME280;26418;50.070;8.436;2023-07-08T00:01:34;100087.38;;;23.01;37.74
40730;BME280;26418;50.070;8.436;2023-07-08T00:03:59;100086.97;;;23.02;37.61
40730;BME280;26418;50.070;8.436;2023-07-08T00:06:26;100086.97;;;22.99;37.89
40730;BME280;26418;50.070;8.436;2023-07-08T00:09:10;100082.13;;;22.88;38.25
40730;BME280;26418;50.070;8.436;2023-07-08T00:11:49;100079.78;;;22.90;37.91
40730;BME280;26418;50.070;8.436;2023-07-08T00:14:20;100074.28;;;22.90;37.66
40730;BME280;26418;50.070;8.436;2023-07-08T00:16:46;100079.47;;;22.96;37.58
40730;BME280;26418;50.070;8.436;2023-07-08T00:19:11;100063.31;;;22.98;37.37
40730;BME280;26418;50.070;8.436;2023-07-08T00:21:37;100062.09;;;22.91;37.63
40730;BME280;26418;50.070;8.436;2023-07-08T00:24:08;100065.97;;;22.87;37.71
40730;BME280;26418;50.070;8.436;2023-07-08T00:26:34;100068.34;;;22.88;37.88
40730;BME280;26418;50.070;8.436;2023-07-08T00:28:59;100054.84;;;22.76;37.88
40730;BME280;26418;50.070;8.436;2023-07-08T00:31:28;100052.56;;;22.82;37.33
40730;BME280;26418;50.070;8.436;2023-07-08T00:33:57;100052.56;;;22.85;37.92
40730;BME280;26418;50.070;8.436;2023-07-08T00:36:25;100058.84;;;22.82;37.65
40730;BME280;26418;50.070;8.436;2023-07-08T00:38:51;100052.56;;;22.82;37.59
40730;BME280;26418;50.070;8.436;2023-07-08T00:41:37;100057.63;;;22.76;37.74
40730;BME280;26418;50.070;8.436;2023-07-08T00:44:05;100067.09;;;22.79;37.65
40730;BME280;26418;50.070;8.436;2023-07-08T00:51:38;100060.81;;;22.82;37.55
40730;BME280;26418;50.070;8.436;2023-07-08T00:54:05;100061.91;;;22.70;37.64
40730;BME280;26418;50.070;8.436;2023-07-08T00:56:45;100060.69;;;22.67;37.36
40730;BME280;26418;50.070;8.436;2023-07-08T00:59:19;100073.28;;;22.68;37.93
40730;BME280;26418;50.070;8.436;2023-07-08T01:01:46;100060.59;;;22.60;38.32
40730;BME280;26418;50.070;8.436;2023-07-08T01:04:28;100068.94;;;22.67;37.77
40730;BME280;26418;50.070;8.436;2023-07-08T01:06:57;100057.53;;;22.65;38.03
40730;BME280;26418;50.070;8.436;2023-07-08T01:09:31;100062.25;;;22.68;37.43
40730;BME280;26418;50.070;8.436;2023-07-08T01:11:59;100069.03;;;22.74;37.42
40730;BME280;26418;50.070;8.436;2023-07-08T01:14:29;100060.72;;;22.71;37.70
40730;BME280;26418;50.070;8.436;2023-07-08T01:16:58;100069.81;;;22.75;37.36
40730;BME280;26418;50.070;8.436;2023-07-08T01:19:24;100053.19;;;22.64;37.35
40730;BME280;26418;50.070;8.436;2023-07-08T01:22:05;100069.03;;;22.74;37.75
40730;BME280;26418;50.070;8.436;2023-07-08T01:24:34;100065.91;;;22.80;37.47
40730;BME280;26418;50.070;8.436;2023-07-08T01:27:02;100071.03;;;22.81;37.59
40730;BME280;26418;50.070;8.436;2023-07-08T01:29:29;100066.69;;;22.80;37.74
40730;BME280;26418;50.070;8.436;2023-07-08T01:31:59;100068.28;;;22.81;37.62
40730;BME280;26418;50.070;8.436;2023-07-08T01:34:31;100063.94;;;22.80;37.62
40730;BME280;26418;50.070;8.436;2023-07-08T01:36:59;100068.66;;;22.76;37.79
40730;BME280;26418;50.070;8.436;2023-07-08T01:39:28;100068.22;;;22.74;37.68
40730;BME280;26418;50.070;8.436;2023-07-08T01:41:55;100061.91;;;22.70;37.62
40730;BME280;26418;50.070;8.436;2023-07-08T01:47:00;100055.91;;;22.60;37.78
40730;BME280;26418;50.070;8.436;2023-07-08T01:49:28;100043.69;;;22.58;37.96
40730;BME280;26418;50.070;8.436;2023-07-08T01:51:55;100030.19;;;22.49;38.06
40730;BME280;26418;50.070;8.436;2023-07-08T01:54:21;100038.06;;;22.51;38.07
40730;BME280;26418;50.070;8.436;2023-07-08T01:56:47;100035.28;;;22.47;38.19
40730;BME280;26418;50.070;8.436;2023-07-08T01:59:17;100025.72;;;22.37;38.48
40730;BME280;26418;50.070;8.436;2023-07-08T02:01:42;100037.13;;;22.36;38.78
40730;BME280;26418;50.070;8.436;2023-07-08T02:04:08;100033.88;;;22.26;38.98
40730;BME280;26418;50.070;8.436;2023-07-08T02:06:33;100051.25;;;22.34;38.82
40730;BME280;26418;50.070;8.436;2023-07-08T02:08:59;100037.34;;;22.20;38.96
40730;BME280;26418;50.070;8.436;2023-07-08T02:11:24;100036.09;;;22.13;38.96
40730;BME280;26418;50.070;8.436;2023-07-08T02:13:50;100040.06;;;22.16;39.04
40730;BME280;26418;50.070;8.436;2023-07-08T02:16:16;100040.84;;;22.17;39.05
40730;BME280;26418;50.070;8.436;2023-07-08T02:18:41;100045.97;;;22.14;39.05
40730;BME280;26418;50.070;8.436;2023-07-08T02:21:07;100033.31;;;22.10;39.19
40730;BME280;26418;50.070;8.436;2023-07-08T02:23:34;100041.56;;;22.10;38.99
40730;BME280;26418;50.070;8.436;2023-07-08T02:25:59;100041.50;;;22.03;39.05
40730;BME280;26418;50.070;8.436;2023-07-08T02:28:25;100049.28;;;21.97;39.41
40730;BME280;26418;50.070;8.436;2023-07-08T02:30:51;100044.09;;;21.92;39.28
40730;BME280;26418;50.070;8.436;2023-07-08T02:33:16;100053.09;;;21.85;39.35
40730;BME280;26418;50.070;8.436;2023-07-08T02:35:43;100038.75;;;21.72;39.57
40730;BME280;26418;50.070;8.436;2023-07-08T02:38:10;100042.63;;;21.67;39.55
40730;BME280;26418;50.070;8.436;2023-07-08T02:40:35;100037.47;;;21.66;39.38
40730;BME280;26418;50.070;8.436;2023-07-08T02:43:01;100037.84;;;21.64;39.44
40730;BME280;26418;50.070;8.436;2023-07-08T02:45:26;100024.47;;;21.63;39.20
40730;BME280;26418;50.070;8.436;2023-07-08T02:47:52;100033.25;;;21.72;39.00
40730;BME280;26418;50.070;8.436;2023-07-08T02:50:17;100039.66;;;21.83;39.01
40730;BME280;26418;50.070;8.436;2023-07-08T02:52:44;100032.44;;;21.72;39.03
40730;BME280;26418;50.070;8.436;2023-07-08T02:55:10;100052.88;;;21.71;39.59
40730;BME280;26418;50.070;8.436;2023-07-08T02:57:35;100053.69;;;21.71;39.17
40730;BME280;26418;50.070;8.436;2023-07-08T03:00:01;100053.63;;;21.67;39.49
40730;BME280;26418;50.070;8.436;2023-07-08T03:02:29;100055.97;;;21.65;39.17
40730;BME280;26418;50.070;8.436;2023-07-08T03:04:55;100048.75;;;21.57;39.15
40730;BME280;26418;50.070;8.436;2023-07-08T03:07:24;100051.16;;;21.59;39.30
40730;BME280;26418;50.070;8.436;2023-07-08T03:09:50;100065.63;;;21.56;39.70
40730;BME280;26418;50.070;8.436;2023-07-08T03:12:15;100062.78;;;21.48;39.76
40730;BME280;26418;50.070;8.436;2023-07-08T03:14:41;100062.06;;;21.55;39.28
40730;BME280;26418;50.070;8.436;2023-07-08T03:17:06;100065.25;;;21.57;39.06
40730;BME280;26418;50.070;8.436;2023-07-08T03:19:32;100066.06;;;21.58;39.06
40730;BME280;26418;50.070;8.436;2023-07-08T03:21:58;100064.03;;;21.55;39.30
40730;BME280;26418;50.070;8.436;2023-07-08T03:24:24;100064.91;;;21.59;39.07
40730;BME280;26418;50.070;8.436;2023-07-08T03:26:49;100066.06;;;21.58;39.01
40730;BME280;26418;50.070;8.436;2023-07-08T03:29:20;100071.88;;;21.52;39.67
40730;BME280;26418;50.070;8.436;2023-07-08T03:31:46;100076.91;;;21.47;39.22
40730;BME280;26418;50.070;8.436;2023-07-08T03:34:13;100071.34;;;21.43;39.88
40730;BME280;26418;50.070;8.436;2023-07-08T03:36:45;100073.84;;;21.52;39.27
40730;BME280;26418;50.070;8.436;2023-07-08T03:39:15;100073.03;;;21.51;39.42
40730;BME280;26418;50.070;8.436;2023-07-08T03:41:41;100071.94;;;21.56;39.17
40730;BME280;26418;50.070;8.436;2023-07-08T03:44:07;100067.19;;;21.53;39.08
40730;BME280;26418;50.070;8.436;2023-07-08T03:46:32;100083.09;;;21.67;38.98
40730;BME280;26418;50.070;8.436;2023-07-08T03:48:58;100079.25;;;21.72;39.11
40730;BME280;26418;50.070;8.436;2023-07-08T03:51:30;100072.56;;;21.73;39.01
40730;BME280;26418;50.070;8.436;2023-07-08T03:53:57;100072.31;;;21.81;38.75
40730;BME280;26418;50.070;8.436;2023-07-08T03:56:23;100077.09;;;21.88;38.92
40730;BME280;26418;50.070;8.436;2023-07-08T03:58:50;100070.47;;;21.93;38.53
40730;BME280;26418;50.070;8.436;2023-07-08T04:01:20;100068.88;;;21.92;38.77
40730;BME280;26418;50.070;8.436;2023-07-08T04:03:48;100067.72;;;21.93;38.54
40730;BME280;26418;50.070;8.436;2023-07-08T04:06:14;100066.94;;;21.92;38.47
40730;BME280;26418;50.070;8.436;2023-07-08T04:08:40;100070.47;;;21.93;38.89
40730;BME280;26418;50.070;8.436;2023-07-08T04:11:05;100069.31;;;21.94;38.90
40730;BME280;26418;50.070;8.436;2023-07-08T04:13:32;100061.44;;;21.92;38.57
40730;BME280;26418;50.070;8.436;2023-07-08T04:16:01;100072.53;;;21.99;38.91
40730;BME280;26418;50.070;8.436;2023-07-08T04:18:27;100079.59;;;21.97;38.94
40730;BME280;26418;50.070;8.436;2023-07-08T04:20:53;100067.72;;;21.93;38.77
40730;BME280;26418;50.070;8.436;2023-07-08T04:23:19;100077.28;;;22.03;38.55
40730;BME280;26418;50.070;8.436;2023-07-08T04:25:46;100080.50;;;22.08;38.38
40730;BME280;26418;50.070;8.436;2023-07-08T04:28:13;100075.38;;;22.07;38.31
40730;BME280;26418;50.070;8.436;2023-07-08T04:30:38;100082.41;;;22.04;38.81
40730;BME280;26418;50.070;8.436;2023-07-08T04:33:11;100081.59;;;22.04;38.43
40730;BME280;26418;50.070;8.436;2023-07-08T04:35:38;100082.88;;;22.10;38.88
40730;BME280;26418;50.070;8.436;2023-07-08T04:38:16;100082.88;;;22.10;38.58
40730;BME280;26418;50.070;8.436;2023-07-08T04:40:42;100077.00;;;22.11;38.96
40730;BME280;26418;50.070;8.436;2023-07-08T04:43:09;100092.81;;;22.18;38.82
40730;BME280;26418;50.070;8.436;2023-07-08T04:45:42;100076.66;;;22.17;38.85
40730;BME280;26418;50.070;8.436;2023-07-08T04:48:13;100077.50;;;22.21;38.76
40730;BME280;26418;50.070;8.436;2023-07-08T04:50:44;100086.09;;;22.16;39.30
40730;BME280;26418;50.070;8.436;2023-07-08T04:53:10;100085.69;;;22.13;39.85
40730;BME280;26418;50.070;8.436;2023-07-08T04:55:42;100096.31;;;22.15;39.75
40730;BME280;26418;50.070;8.436;2023-07-08T04:58:09;100097.47;;;22.14;40.27
40730;BME280;26418;50.070;8.436;2023-07-08T05:00:34;100105.31;;;22.12;40.27
40730;BME280;26418;50.070;8.436;2023-07-08T05:03:01;100096.97;;;22.05;40.53
40730;BME280;26418;50.070;8.436;2023-07-08T05:05:26;100108.47;;;22.10;40.66
40730;BME280;26418;50.070;8.436;2023-07-08T05:07:52;100096.56;;;22.03;40.78
40730;BME280;26418;50.070;8.436;2023-07-08T05:10:18;100110.44;;;22.10;41.29
40730;BME280;26418;50.070;8.436;2023-07-08T05:12:44;100096.63;;;22.06;41.63
40730;BME280;26418;50.070;8.436;2023-07-08T05:15:10;100108.06;;;22.12;41.86
40730;BME280;26418;50.070;8.436;2023-07-08T05:17:38;100110.09;;;22.15;41.99
40730;BME280;26418;50.070;8.436;2023-07-08T05:20:06;100097.91;;;22.16;41.91
40730;BME280;26418;50.070;8.436;2023-07-08T05:22:33;100108.97;;;22.20;42.00
40730;BME280;26418;50.070;8.436;2023-07-08T05:24:59;100109.81;;;22.24;42.36
40730;BME280;26418;50.070;8.436;2023-07-08T05:27:24;100104.31;;;22.24;42.56
40730;BME280;26418;50.070;8.436;2023-07-08T05:29:50;100111.88;;;22.34;42.39
40730;BME280;26418;50.070;8.436;2023-07-08T05:32:17;100113.50;;;22.39;42.32
40730;BME280;26418;50.070;8.436;2023-07-08T05:34:43;100108.72;;;22.32;42.50
40730;BME280;26418;50.070;8.436;2023-07-08T05:37:13;100102.09;;;22.37;42.31
40730;BME280;26418;50.070;8.436;2023-07-08T05:39:38;100114.38;;;22.43;42.32
40730;BME280;26418;50.070;8.436;2023-07-08T05:42:05;100109.69;;;22.47;42.51
40730;BME280;26418;50.070;8.436;2023-07-08T05:44:30;100090.41;;;22.47;42.38
40730;BME280;26418;50.070;8.436;2023-07-08T05:46:56;100107.47;;;22.60;41.96
40730;BME280;26418;50.070;8.436;2023-07-08T05:49:21;100116.19;;;22.66;41.86
40730;BME280;26418;50.070;8.436;2023-07-08T05:51:47;100112.94;;;22.56;41.79
40730;BME280;26418;50.070;8.436;2023-07-08T05:54:14;100108.56;;;22.52;41.73
40730;BME280;26418;50.070;8.436;2023-07-08T05:56:40;100114.97;;;22.59;41.84
40730;BME280;26418;50.070;8.436;2023-07-08T05:59:05;100124.13;;;22.71;41.56
40730;BME280;26418;50.070;8.436;2023-07-08T06:01:31;100120.22;;;22.75;40.99
40730;BME280;26418;50.070;8.436;2023-07-08T06:03:57;100126.63;;;22.83;41.12
40730;BME280;26418;50.070;8.436;2023-07-08T06:06:26;100125.09;;;22.89;41.02
40730;BME280;26418;50.070;8.436;2023-07-08T06:08:52;100117.28;;;22.99;41.10
40730;BME280;26418;50.070;8.436;2023-07-08T06:11:18;100118.94;;;23.07;40.65
40730;BME280;26418;50.070;8.436;2023-07-08T06:13:44;100118.56;;;23.08;40.31
40730;BME280;26418;50.070;8.436;2023-07-08T06:16:09;100130.03;;;23.14;40.21
40730;BME280;26418;50.070;8.436;2023-07-08T06:18:35;100130.53;;;23.23;39.67
40730;BME280;26418;50.070;8.436;2023-07-08T06:21:01;100133.34;;;23.31;39.52
40730;BME280;26418;50.070;8.436;2023-07-08T06:23:27;100125.50;;;23.33;39.91
40730;BME280;26418;50.070;8.436;2023-07-08T06:25:53;100123.13;;;23.31;40.10
40730;BME280;26418;50.070;8.436;2023-07-08T06:28:19;100126.25;;;23.30;39.53
40730;BME280;26418;50.070;8.436;2023-07-08T06:30:45;100127.03;;;23.27;39.57
40730;BME280;26418;50.070;8.436;2023-07-08T06:33:11;100125.00;;;23.20;39.76
40730;BME280;26418;50.070;8.436;2023-07-08T06:35:37;100130.19;;;23.25;39.77
40730;BME280;26418;50.070;8.436;2023-07-08T06:38:03;100136.47;;;23.26;39.49
40730;BME280;26418;50.070;8.436;2023-07-08T06:40:29;100148.72;;;23.28;39.53
40730;BME280;26418;50.070;8.436;2023-07-08T06:42:55;100138.84;;;23.27;39.36
40730;BME280;26418;50.070;8.436;2023-07-08T06:45:21;100150.34;;;23.33;39.57
40730;BME280;26418;50.070;8.436;2023-07-08T06:47:46;100147.97;;;23.31;39.51
40730;BME280;26418;50.070;8.436;2023-07-08T06:50:12;100153.56;;;23.42;38.42
40730;BME280;26418;50.070;8.436;2023-07-08T06:52:38;100160.34;;;23.55;38.54
40730;BME280;26418;50.070;8.436;2023-07-08T06:55:05;100152.53;;;23.65;38.75
40730;BME280;26418;50.070;8.436;2023-07-08T06:57:32;100143.56;;;23.79;37.96
40730;BME280;26418;50.070;8.436;2023-07-08T06:59:58;100136.44;;;23.78;37.77
40730;BME280;26418;50.070;8.436;2023-07-08T07:02:24;100141.66;;;23.90;37.39
40730;BME280;26418;50.070;8.436;2023-07-08T07:04:49;100147.22;;;23.94;37.66
40730;BME280;26418;50.070;8.436;2023-07-08T07:07:15;100167.38;;;24.01;37.71
40730;BME280;26418;50.070;8.436;2023-07-08T07:09:40;100164.28;;;24.14;37.85
40730;BME280;26418;50.070;8.436;2023-07-08T07:12:06;100170.22;;;24.16;37.54
40730;BME280;26418;50.070;8.436;2023-07-08T07:14:33;100184.03;;;24.12;37.35
40730;BME280;26418;50.070;8.436;2023-07-08T07:16:59;100183.63;;;24.10;37.69
40730;BME280;26418;50.070;8.436;2023-07-08T07:19:24;100184.38;;;24.07;37.99
40730;BME280;26418;50.070;8.436;2023-07-08T07:21:50;100179.28;;;24.13;37.81
40730;BME280;26418;50.070;8.436;2023-07-08T07:24:16;100174.94;;;24.15;37.53
40730;BME280;26418;50.070;8.436;2023-07-08T07:26:42;100163.09;;;24.11;40.19
40730;BME280;26418;50.070;8.436;2023-07-08T07:29:07;100160.69;;;24.02;41.29
40730;BME280;26418;50.070;8.436;2023-07-08T07:31:33;100182.41;;;24.00;42.57
40730;BME280;26418;50.070;8.436;2023-07-08T07:33:59;100186.72;;;24.05;43.62
40730;BME280;26418;50.070;8.436;2023-07-08T07:36:26;100182.03;;;24.06;45.09
40730;BME280;26418;50.070;8.436;2023-07-08T07:38:51;100182.06;;;24.13;44.19
40730;BME280;26418;50.070;8.436;2023-07-08T07:41:17;100166.63;;;24.08;44.18
40730;BME280;26418;50.070;8.436;2023-07-08T07:43:42;100171.81;;;24.17;44.10
40730;BME280;26418;50.070;8.436;2023-07-08T07:46:08;100185.28;;;24.26;43.78
40730;BME280;26418;50.070;8.436;2023-07-08T07:48:36;100192.84;;;24.36;43.42
40730;BME280;26418;50.070;8.436;2023-07-08T07:51:01;100186.94;;;24.48;42.80
40730;BME280;26418;50.070;8.436;2023-07-08T07:53:27;100183.44;;;24.62;42.33
40730;BME280;26418;50.070;8.436;2023-07-08T07:55:57;100173.59;;;24.72;40.64
40730;BME280;26418;50.070;8.436;2023-07-08T07:58:23;100177.22;;;24.91;40.37
40730;BME280;26418;50.070;8.436;2023-07-08T08:00:49;100164.59;;;25.04;38.82
40730;BME280;26418;50.070;8.436;2023-07-08T08:03:15;100166.59;;;25.22;37.79
40730;BME280;26418;50.070;8.436;2023-07-08T08:05:42;100162.25;;;25.24;38.72
40730;BME280;26418;50.070;8.436;2023-07-08T08:08:07;100151.53;;;25.23;38.00
40730;BME280;26418;50.070;8.436;2023-07-08T08:10:32;100155.53;;;25.40;37.70
40730;BME280;26418;50.070;8.436;2023-07-08T08:12:59;100170.19;;;25.55;37.99
40730;BME280;26418;50.070;8.436;2023-07-08T08:15:25;100167.78;;;25.57;37.02
40730;BME280;26418;50.070;8.436;2023-07-08T08:17:50;100167.00;;;25.60;37.67
40730;BME280;26418;50.070;8.436;2023-07-08T08:20:18;100173.69;;;25.77;37.34
40730;BME280;26418;50.070;8.436;2023-07-08T08:22:45;100170.47;;;26.00;35.15
40730;BME280;26418;50.070;8.436;2023-07-08T08:25:11;100175.50;;;26.42;34.04
40730;BME280;26418;50.070;8.436;2023-07-08T08:27:36;100156.34;;;26.73;33.04
40730;BME280;26418;50.070;8.436;2023-07-08T08:30:05;100147.31;;;27.18;32.49
40730;BME280;26418;50.070;8.436;2023-07-08T08:32:31;100165.19;;;27.62;31.53
40730;BME280;26418;50.070;8.436;2023-07-08T08:34:56;100165.94;;;28.04;31.38
40730;BME280;26418;50.070;8.436;2023-07-08T08:37:22;100166.66;;;28.47;30.19
40730;BME280;26418;50.070;8.436;2023-07-08T08:39:47;100162.44;;;28.66;29.67
40730;BME280;26418;50.070;8.436;2023-07-08T08:42:30;100162.22;;;29.08;29.49
40730;BME280;26418;50.070;8.436;2023-07-08T08:45:00;100160.97;;;29.60;29.47
40730;BME280;26418;50.070;8.436;2023-07-08T08:47:40;100158.06;;;30.11;29.21
40730;BME280;26418;50.070;8.436;2023-07-08T08:52:50;100164.38;;;30.32;28.30
40730;BME280;26418;50.070;8.436;2023-07-08T08:55:16;100160.94;;;30.44;27.89
40730;BME280;26418;50.070;8.436;2023-07-08T09:00:42;100156.34;;;31.40;26.46
40730;BME280;26418;50.070;8.436;2023-07-08T09:03:30;100156.50;;;31.95;26.24
40730;BME280;26418;50.070;8.436;2023-07-08T09:05:59;100138.19;;;32.20;25.68
40730;BME280;26418;50.070;8.436;2023-07-08T09:08:34;100142.44;;;32.12;25.24
40730;BME280;26418;50.070;8.436;2023-07-08T09:13:35;100142.19;;;31.93;25.96
40730;BME280;26418;50.070;8.436;2023-07-08T09:16:05;100146.41;;;31.85;25.83
40730;BME280;26418;50.070;8.436;2023-07-08T09:18:40;100154.59;;;31.92;25.61
40730;BME280;26418;50.070;8.436;2023-07-08T09:21:22;100151.94;;;31.72;25.52
40730;BME280;26418;50.070;8.436;2023-07-08T09:23:53;100163.25;;;31.69;25.51
40730;BME280;26418;50.070;8.436;2023-07-08T09:26:22;100157.97;;;31.54;25.68
40730;BME280;26418;50.070;8.436;2023-07-08T09:28:49;100153.81;;;31.46;26.09
40730;BME280;26418;50.070;8.436;2023-07-08T09:31:30;100151.81;;;31.46;26.40
40730;BME280;26418;50.070;8.436;2023-07-08T09:34:21;100151.34;;;31.48;26.67
40730;BME280;26418;50.070;8.436;2023-07-08T09:36:49;100147.44;;;31.45;26.57
40730;BME280;26418;50.070;8.436;2023-07-08T09:39:18;100151.81;;;31.46;26.75
40730;BME280;26418;50.070;8.436;2023-07-08T09:41:46;100146.38;;;31.56;26.80
40730;BME280;26418;50.070;8.436;2023-07-08T09:44:25;100150.47;;;31.67;27.06
40730;BME280;26418;50.070;8.436;2023-07-08T09:46:52;100151.06;;;31.75;26.90
40730;BME280;26418;50.070;8.436;2023-07-08T09:51:48;100147.13;;;31.73;25.50
40730;BME280;26418;50.070;8.436;2023-07-08T09:54:16;100136.09;;;31.82;25.89
40730;BME280;26418;50.070;8.436;2023-07-08T09:56:44;100129.31;;;31.96;25.36
40730;BME280;26418;50.070;8.436;2023-07-08T09:59:14;100126.69;;;32.18;25.38
40730;BME280;26418;50.070;8.436;2023-07-08T10:01:41;100124.38;;;32.55;24.98
40730;BME280;26418;50.070;8.436;2023-07-08T10:04:08;100123.59;;;32.68;24.67
40730;BME280;26418;50.070;8.436;2023-07-08T10:06:34;100116.84;;;32.91;24.74
40730;BME280;26418;50.070;8.436;2023-07-08T10:09:20;100123.69;;;33.16;24.81
40730;BME280;26418;50.070;8.436;2023-07-08T10:11:58;100125.03;;;33.46;24.39
40730;BME280;26418;50.070;8.436;2023-07-08T10:14:48;100121.19;;;33.88;24.02
40730;BME280;26418;50.070;8.436;2023-07-08T10:17:17;100123.44;;;34.03;23.30
40730;BME280;26418;50.070;8.436;2023-07-08T10:19:43;100119.50;;;34.44;23.12
40730;BME280;26418;50.070;8.436;2023-07-08T10:25:11;100122.09;;;34.89;22.59
40730;BME280;26418;50.070;8.436;2023-07-08T10:30:23;100110.81;;;35.67;21.40
40730;BME280;26418;50.070;8.436;2023-07-08T10:35:45;100117.22;;;36.38;20.91
40730;BME280;26418;50.070;8.436;2023-07-08T10:40:58;100103.56;;;36.55;19.98
40730;BME280;26418;50.070;8.436;2023-07-08T10:43:47;100112.34;;;36.81;19.99
40730;BME280;26418;50.070;8.436;2023-07-08T10:46:46;100114.50;;;36.87;20.22
40730;BME280;26418;50.070;8.436;2023-07-08T10:57:51;100114.03;;;36.55;20.54
40730;BME280;26418;50.070;8.436;2023-07-08T11:00:39;100106.50;;;36.61;20.61
40730;BME280;26418;50.070;8.436;2023-07-08T11:10:40;100116.25;;;35.98;20.86
40730;BME280;26418;50.070;8.436;2023-07-08T11:13:19;100116.91;;;35.93;21.23
40730;BME280;26418;50.070;8.436;2023-07-08T11:21:53;100116.31;;;35.52;21.88
40730;BME280;26418;50.070;8.436;2023-07-08T11:27:05;100114.34;;;36.57;20.86
40730;BME280;26418;50.070;8.436;2023-07-08T11:29:41;100100.75;;;36.55;20.85
40730;BME280;26418;50.070;8.436;2023-07-08T11:32:14;100104.63;;;36.91;20.63
40730;BME280;26418;50.070;8.436;2023-07-08T11:34:42;100097.47;;;37.29;19.49
40730;BME280;26418;50.070;8.436;2023-07-08T11:37:10;100094.13;;;37.55;19.66
40730;BME280;26418;50.070;8.436;2023-07-08T11:39:42;100095.41;;;37.84;19.78
40730;BME280;26418;50.070;8.436;2023-07-08T11:42:20;100083.00;;;38.27;18.77
40730;BME280;26418;50.070;8.436;2023-07-08T11:44:53;100090.31;;;38.48;19.03
40730;BME280;26418;50.070;8.436;2023-07-08T11:47:41;100079.03;;;38.33;19.40
40730;BME280;26418;50.070;8.436;2023-07-08T11:50:28;100089.75;;;38.65;19.26
40730;BME280;26418;50.070;8.436;2023-07-08T11:55:47;100077.03;;;39.16;18.84
40730;BME280;26418;50.070;8.436;2023-07-08T11:58:27;100074.22;;;39.37;18.19
40730;BME280;26418;50.070;8.436;2023-07-08T12:03:34;100065.06;;;39.48;17.94
40730;BME280;26418;50.070;8.436;2023-07-08T12:06:00;100071.66;;;39.39;18.26
40730;BME280;26418;50.070;8.436;2023-07-08T12:08:36;100072.84;;;39.53;17.63
40730;BME280;26418;50.070;8.436;2023-07-08T12:11:03;100070.13;;;39.97;18.10
40730;BME280;26418;50.070;8.436;2023-07-08T12:13:29;100074.56;;;40.03;18.14
40730;BME280;26418;50.070;8.436;2023-07-08T12:15:55;100070.28;;;40.14;17.74
40730;BME280;26418;50.070;8.436;2023-07-08T12:18:35;100071.91;;;39.94;17.65
40730;BME280;26418;50.070;8.436;2023-07-08T12:21:02;100073.44;;;39.63;17.98
40730;BME280;26418;50.070;8.436;2023-07-08T12:23:28;100073.91;;;39.56;18.38
40730;BME280;26418;50.070;8.436;2023-07-08T12:25:55;100067.06;;;39.95;17.73
40730;BME280;26418;50.070;8.436;2023-07-08T12:28:22;100073.56;;;40.38;17.82
40730;BME280;26418;50.070;8.436;2023-07-08T12:30:49;100065.66;;;40.54;17.65
40730;BME280;26418;50.070;8.436;2023-07-08T12:33:24;100059.09;;;40.80;17.22
40730;BME280;26418;50.070;8.436;2023-07-08T12:35:51;100055.34;;;41.06;16.77
40730;BME280;26418;50.070;8.436;2023-07-08T12:38:27;100061.06;;;41.17;17.32
40730;BME280;26418;50.070;8.436;2023-07-08T12:41:01;100062.16;;;40.70;16.42
40730;BME280;26418;50.070;8.436;2023-07-08T12:43:27;100059.81;;;40.69;17.38
40730;BME280;26418;50.070;8.436;2023-07-08T12:45:53;100060.91;;;40.83;16.70
40730;BME280;26418;50.070;8.436;2023-07-08T12:48:18;100054.75;;;40.90;17.17
40730;BME280;26418;50.070;8.436;2023-07-08T12:50:44;100059.63;;;40.84;16.87
40730;BME280;26418;50.070;8.436;2023-07-08T12:53:10;100066.03;;;40.79;17.13
40730;BME280;26418;50.070;8.436;2023-07-08T12:55:39;100055.94;;;40.61;16.77
40730;BME280;26418;50.070;8.436;2023-07-08T12:58:10;100057.03;;;40.31;17.50
40730;BME280;26418;50.070;8.436;2023-07-08T13:00:40;100056.81;;;40.40;17.10
40730;BME280;26418;50.070;8.436;2023-07-08T13:03:13;100055.44;;;40.24;17.13
40730;BME280;26418;50.070;8.436;2023-07-08T13:05:40;100059.69;;;40.46;17.42
40730;BME280;26418;50.070;8.436;2023-07-08T13:08:13;100055.16;;;40.22;17.24
40730;BME280;26418;50.070;8.436;2023-07-08T13:10:39;100053.13;;;39.65;18.17
40730;BME280;26418;50.070;8.436;2023-07-08T13:13:12;100047.09;;;39.04;17.88
40730;BME280;26418;50.070;8.436;2023-07-08T13:15:40;100045.16;;;38.75;18.82
40730;BME280;26418;50.070;8.436;2023-07-08T13:18:19;100059.44;;;38.45;19.34
40730;BME280;26418;50.070;8.436;2023-07-08T13:20:53;100051.41;;;38.08;19.93
40730;BME280;26418;50.070;8.436;2023-07-08T13:23:21;100060.19;;;37.65;19.91
40730;BME280;26418;50.070;8.436;2023-07-08T13:25:51;100055.19;;;37.59;20.76
40730;BME280;26418;50.070;8.436;2023-07-08T13:31:02;100048.66;;;36.99;21.32
40730;BME280;26418;50.070;8.436;2023-07-08T13:33:32;100060.84;;;36.81;21.45
40730;BME280;26418;50.070;8.436;2023-07-08T13:36:01;100048.53;;;36.69;21.01
40730;BME280;26418;50.070;8.436;2023-07-08T13:38:32;100050.13;;;36.61;21.63
40730;BME280;26418;50.070;8.436;2023-07-08T13:41:01;100049.78;;;36.44;21.84
40730;BME280;26418;50.070;8.436;2023-07-08T13:43:30;100049.34;;;36.27;21.62
40730;BME280;26418;50.070;8.436;2023-07-08T13:45:57;100042.69;;;36.15;22.22
40730;BME280;26418;50.070;8.436;2023-07-08T13:48:24;100039.94;;;36.06;21.99
40730;BME280;26418;50.070;8.436;2023-07-08T13:50:56;100041.97;;;35.86;22.19
40730;BME280;26418;50.070;8.436;2023-07-08T13:53:27;100044.69;;;35.71;22.56
40730;BME280;26418;50.070;8.436;2023-07-08T13:56:01;100035.16;;;35.69;22.21
40730;BME280;26418;50.070;8.436;2023-07-08T13:58:29;100037.78;;;35.82;22.82
40730;BME280;26418;50.070;8.436;2023-07-08T14:00:56;100035.59;;;35.86;22.39